aviador You're here:

KPSX Decoded Metar

PALACIOS in TX, USA
Report Time2018-05-26 07:53:00
UTC Time2018-05-26 08:01:14
Flight Rules vfr VFR
Wind180° at 10 kt
W.Decomp.*RWY 17: 9.9 kt HW 1.2 kt RCW
RWY 13: 6.8 kt HW 7.3 kt RCW
RWY 26: 1.2 kt HW 9.9 kt LCW
W.Rank180° ranks 5
Current wind is above 180° avg. (9.0)
Visibility9999 m
Phenomena:N/A
Clouds:Scattered 019 Hf
Expected CloudBase > 1,200 ft AGL from Temp-Dew spread
CeilingNone
Temp28°C (ISA +13)
Dew Point25°C (84% RH)
Heat Index32.7°C
QNH1011 hPa
Density Alt1,998 ft
Elevation16 ft
Report Wrong Elevation
Raw Report
METAR KPSX 260753Z AUTO 18010KT 10SM SCT019 28/25 A2985 RMK AO2 SLP108
T02780250=

Extra information for KPSX:More info

Metar Taf Metar & Taf Last 4 Metars F.Rules Stats Wind Profile Meteogram Temp Stats Airport Information Weather charts Add Link Nearby VenuesMetar ALERT Operation Metar Decoded Social comments

AIRNAV info for KPSX